Weather at Amsterdam Airport Schiphol

Public forecast

Using degrees Celsius for public forecast. Weather courtesy of forecast.io.

Current aviation weather report (METAR) for Amsterdam Airport Schiphol

Retrieved 2021/07/29 08:25 UTC (5 minutes ago):

EHAM 290825Z 25021KT 210V280 9999 FEW024TCU SCT026 18/11 Q1008 NOSIG

Aviation forecast (TAF) for Amsterdam Airport Schiphol

Retrieved 2021/07/29 06:28 UTC (2 hours ago):

TAF EHAM 290426Z 2906/3012 24014KT 9999 SCT030 BECMG 2906/2908 25020G30KT BECMG 2917/2920 22012KT BECMG 3004/3007 19006KT PROB30 TEMPO 3008/3012 7000 -RA BECMG 3009/3012 16010KT